Christine Anderson — WCN2606 — position and weather

sailwx.info

Track history (hours):
 
Tides and Currents Weather Stations Pressure Air Temp Water Temp Dewpoint Dewpoint Depression Visibility Wind Speed Wind Dir Waves Ship Positions

Christine Anderson

Owner: PIERCE, COUNTY OF, TACOMA, WA. More information available from US FCC via Universal Licensing System and Coast Guard Vessel Documentation Center.

Last reported at 2014-Oct-02 03:19 UTC. Time now 2014-Oct-02 06:34 UTC.
Position N 47°10' W 122°36'.

MMSI: 366659730.

Date/timePositionNaut miles runAvg speedWind from/ knotsBaromVisibWave heightAir tempDewpointWater temp
2014-Oct-02 03:19N 47°10' W 122°36'1 0.7
2014-Oct-02 02:33N 47°11' W 122°37'0 0.3
2014-Oct-02 01:32N 47°11' W 122°36'3 2.8
2014-Oct-02 00:32N 47°11' W 122°41'0 0.0
2014-Oct-01 23:32N 47°11' W 122°41'0 0.0
2014-Oct-01 22:33N 47°11' W 122°41'0 0.0
2014-Oct-01 21:29N 47°11' W 122°41'3 3.2
2014-Oct-01 20:33N 47°10' W 122°36'3 2.6
2014-Oct-01 19:33N 47°11' W 122°40'3 2.5
2014-Oct-01 18:33N 47°10' W 122°36'3 2.9
2014-Oct-01 17:33N 47°11' W 122°40'0 0.2
2014-Oct-01 16:33N 47°11' W 122°40'1 0.6
2014-Oct-01 15:33N 47°11' W 122°40'0 0.0
2014-Oct-01 14:33N 47°11' W 122°40'2 2.2
2014-Oct-01 13:30N 47°11' W 122°36'0 0.2
2014-Oct-01 12:32N 47°10' W 122°36'0 0.0
2014-Oct-01 03:19N 47°10' W 122°36'0 0.6
2014-Oct-01 02:33N 47°11' W 122°37'0 0.4
2014-Oct-01 01:31N 47°10' W 122°36'3 3.1
2014-Oct-01 00:32N 47°11' W 122°41'0 0.0
2014-Sep-30 23:29N 47°11' W 122°41'0 0.0
2014-Sep-30 22:33N 47°11' W 122°41'0 0.0
2014-Sep-30 21:32N 47°11' W 122°41'0 0.2
2014-Sep-30 19:33N 47°11' W 122°40'0 0.0
2014-Sep-30 17:33N 47°11' W 122°40'0 0.4
2014-Sep-30 16:33N 47°11' W 122°40'0 0.5
2014-Sep-30 15:33N 47°11' W 122°40'0 0.0
2014-Sep-30 14:33N 47°11' W 122°40'2 2.3
2014-Sep-30 13:33N 47°10' W 122°36'0 0.0
2014-Sep-30 03:19N 47°10' W 122°36'0 0.5
2014-Sep-30 02:32N 47°11' W 122°37'0 0.2
2014-Sep-30 01:33N 47°11' W 122°37'3 2.6
2014-Sep-30 00:32N 47°11' W 122°41'0 0.0
2014-Sep-29 23:29N 47°11' W 122°41'0 0.0
2014-Sep-29 22:33N 47°11' W 122°41'0 0.0
2014-Sep-29 21:31N 47°11' W 122°41'3 3.0
2014-Sep-29 20:31N 47°10' W 122°36'  
Track history (hours):
 
Tides and Currents Weather Stations Pressure Air Temp Water Temp Dewpoint Dewpoint Depression Visibility Wind Speed Wind Dir Waves Ship Positions

Christine Anderson

Owner: PIERCE, COUNTY OF, TACOMA, WA. More information available from US FCC via Universal Licensing System and Coast Guard Vessel Documentation Center.

Last reported at 2014-Oct-02 03:19 UTC. Time now 2014-Oct-02 06:34 UTC.
Position N 47°10' W 122°36'.

MMSI: 366659730.

Date/timePositionNaut miles runAvg speedWind from/ knotsBaromVisibWave heightAir tempDewpointWater temp
2014-Oct-02 03:19N 47°10' W 122°36'1 0.7
2014-Oct-02 02:33N 47°11' W 122°37'0 0.3
2014-Oct-02 01:32N 47°11' W 122°36'3 2.8
2014-Oct-02 00:32N 47°11' W 122°41'0 0.0
2014-Oct-01 23:32N 47°11' W 122°41'0 0.0
2014-Oct-01 22:33N 47°11' W 122°41'0 0.0
2014-Oct-01 21:29N 47°11' W 122°41'3 3.2
2014-Oct-01 20:33N 47°10' W 122°36'3 2.6
2014-Oct-01 19:33N 47°11' W 122°40'3 2.5
2014-Oct-01 18:33N 47°10' W 122°36'3 2.9
2014-Oct-01 17:33N 47°11' W 122°40'0 0.2
2014-Oct-01 16:33N 47°11' W 122°40'1 0.6
2014-Oct-01 15:33N 47°11' W 122°40'0 0.0
2014-Oct-01 14:33N 47°11' W 122°40'2 2.2
2014-Oct-01 13:30N 47°11' W 122°36'0 0.2
2014-Oct-01 12:32N 47°10' W 122°36'0 0.0
2014-Oct-01 03:19N 47°10' W 122°36'0 0.6
2014-Oct-01 02:33N 47°11' W 122°37'0 0.4
2014-Oct-01 01:31N 47°10' W 122°36'3 3.1
2014-Oct-01 00:32N 47°11' W 122°41'0 0.0
2014-Sep-30 23:29N 47°11' W 122°41'0 0.0
2014-Sep-30 22:33N 47°11' W 122°41'0 0.0
2014-Sep-30 21:32N 47°11' W 122°41'0 0.2
2014-Sep-30 19:33N 47°11' W 122°40'0 0.0
2014-Sep-30 17:33N 47°11' W 122°40'0 0.4
2014-Sep-30 16:33N 47°11' W 122°40'0 0.5
2014-Sep-30 15:33N 47°11' W 122°40'0 0.0
2014-Sep-30 14:33N 47°11' W 122°40'2 2.3
2014-Sep-30 13:33N 47°10' W 122°36'0 0.0
2014-Sep-30 03:19N 47°10' W 122°36'0 0.5
2014-Sep-30 02:32N 47°11' W 122°37'0 0.2
2014-Sep-30 01:33N 47°11' W 122°37'3 2.6
2014-Sep-30 00:32N 47°11' W 122°41'0 0.0
2014-Sep-29 23:29N 47°11' W 122°41'0 0.0
2014-Sep-29 22:33N 47°11' W 122°41'0 0.0
2014-Sep-29 21:31N 47°11' W 122°41'3 3.0
2014-Sep-29 20:31N 47°10' W 122°36'  

Dump ship's entire track history